Time;durP1;ratioP1;P1;durP2;ratioP2;P2;SDS_P1;SDS_P2;PMS_P1;PMS_P2;Temp;Humidity;BMP_temperature;BMP_pressure;BME280_temperature;BME280_humidity;BME280_pressure;Samples;Min_cycle;Max_cycle;Signal;HPM_P1;HPM_P2
2023/12/09 00:00:37;;;;;;;30.48;11.27;;;;;;;5.58;100.00;100872.41;5030652;28;20037;-60
2023/12/09 00:03:03;;;;;;;29.65;10.18;;;;;;;5.56;100.00;100863.75;5049221;28;20044;-62
2023/12/09 00:05:28;;;;;;;30.20;11.27;;;;;;;5.55;100.00;100861.97;5050188;28;20029;-61
2023/12/09 00:07:53;;;;;;;26.88;10.95;;;;;;;5.60;100.00;100863.09;5054335;28;20028;-61
2023/12/09 00:10:19;;;;;;;31.33;10.98;;;;;;;5.58;100.00;100857.88;5058549;28;20074;-60
2023/12/09 00:12:44;;;;;;;24.88;11.10;;;;;;;5.58;100.00;100859.56;5056680;28;20405;-61
2023/12/09 00:15:09;;;;;;;29.67;11.30;;;;;;;5.53;100.00;100856.75;5054277;28;20035;-60
2023/12/09 00:17:35;;;;;;;33.72;11.93;;;;;;;5.53;100.00;100860.22;5043542;28;20039;-61
2023/12/09 00:20:00;;;;;;;28.33;10.18;;;;;;;5.58;100.00;100859.56;5062386;28;20056;-61
2023/12/09 00:22:25;;;;;;;27.77;10.98;;;;;;;5.57;100.00;100865.50;5049652;28;20526;-61
2023/12/09 00:24:51;;;;;;;25.45;10.65;;;;;;;5.50;100.00;100860.06;5049781;28;20017;-61
2023/12/09 00:27:16;;;;;;;24.48;10.27;;;;;;;5.50;100.00;100864.31;5048735;28;20031;-61
2023/12/09 00:29:42;;;;;;;33.00;11.25;;;;;;;5.52;100.00;100868.72;5051295;28;20384;-60
2023/12/09 00:32:07;;;;;;;30.73;11.45;;;;;;;5.48;100.00;100871.94;5048953;28;20044;-60
2023/12/09 00:34:33;;;;;;;24.15;10.85;;;;;;;5.47;100.00;100877.00;5050011;28;20426;-61
2023/12/09 00:36:58;;;;;;;27.88;10.68;;;;;;;5.47;100.00;100879.56;5049745;28;20029;-61
2023/12/09 00:39:23;;;;;;;27.70;10.90;;;;;;;5.48;100.00;100874.50;5050271;28;20021;-61
2023/12/09 00:41:48;;;;;;;26.20;10.13;;;;;;;5.49;100.00;100862.53;5048954;28;20020;-60
2023/12/09 00:44:17;;;;;;;24.45;10.60;;;;;;;5.57;100.00;100853.56;5049959;28;20350;-60
2023/12/09 00:46:42;;;;;;;27.45;10.98;;;;;;;5.57;100.00;100862.94;5059791;28;20417;-60
2023/12/09 00:49:08;;;;;;;32.10;11.15;;;;;;;5.57;100.00;100862.94;5038151;28;20053;-61
2023/12/09 00:51:33;;;;;;;29.60;11.27;;;;;;;5.59;100.00;100858.78;5061389;28;20441;-61
2023/12/09 00:53:59;;;;;;;31.67;12.27;;;;;;;5.56;100.00;100863.75;5049592;28;20033;-61
2023/12/09 00:56:24;;;;;;;28.38;11.27;;;;;;;5.58;100.00;100865.59;5048887;28;20096;-61
2023/12/09 00:58:49;;;;;;;32.95;11.38;;;;;;;5.54;100.00;100861.06;5039946;28;20025;-61
2023/12/09 01:01:14;;;;;;;28.60;11.05;;;;;;;5.52;100.00;100855.00;5045443;28;20032;-61
2023/12/09 01:03:40;;;;;;;24.60;11.10;;;;;;;5.53;100.00;100849.94;5057486;28;20365;-61
2023/12/09 01:06:05;;;;;;;25.10;12.57;;;;;;;5.53;100.00;100854.19;5037649;28;20468;-61
2023/12/09 01:08:30;;;;;;;24.58;11.07;;;;;;;5.55;100.00;100855.16;5039224;28;20032;-61
2023/12/09 01:10:55;;;;;;;30.80;10.93;;;;;;;5.57;100.00;100858.69;5036204;28;20028;-61
2023/12/09 01:13:21;;;;;;;21.38;10.30;;;;;;;5.55;100.00;100860.28;5049120;28;20037;-60
2023/12/09 01:15:46;;;;;;;27.35;13.20;;;;;;;5.52;100.00;100858.44;5058351;28;20025;-62
2023/12/09 01:18:11;;;;;;;28.45;12.95;;;;;;;5.51;100.00;100848.97;5039760;28;20469;-61
2023/12/09 01:20:37;;;;;;;32.28;13.02;;;;;;;5.50;100.00;100839.50;5047975;28;20024;-61
2023/12/09 01:23:02;;;;;;;25.10;12.32;;;;;;;5.45;100.00;100840.91;5053296;28;20115;-61
2023/12/09 01:25:27;;;;;;;32.22;11.77;;;;;;;5.38;100.00;100850.00;5055009;28;20035;-60
2023/12/09 01:27:53;;;;;;;25.73;11.10;;;;;;;5.42;100.00;100845.91;5053866;28;20028;-61
2023/12/09 01:30:18;;;;;;;25.65;10.88;;;;;;;5.41;100.00;100852.72;5043827;28;20595;-60
2023/12/09 01:32:43;;;;;;;29.30;10.38;;;;;;;5.37;100.00;100845.66;5054608;28;20123;-62
2023/12/09 01:35:10;;;;;;;28.85;10.00;;;;;;;5.33;100.00;100850.53;5048937;28;20017;-61
2023/12/09 01:37:35;;;;;;;32.58;10.75;;;;;;;5.31;100.00;100845.31;5044261;28;20393;-61
2023/12/09 01:40:00;;;;;;;27.93;10.43;;;;;;;5.34;100.00;100855.78;5058786;28;20102;-61
2023/12/09 01:42:26;;;;;;;32.55;10.32;;;;;;;5.25;100.00;100857.84;5043034;28;20361;-61
2023/12/09 01:44:51;;;;;;;25.23;10.63;;;;;;;5.19;100.00;100855.84;5058426;28;20063;-62
2023/12/09 01:47:17;;;;;;;26.30;10.50;;;;;;;5.24;100.00;100836.41;5061479;28;20051;-61
2023/12/09 01:49:42;;;;;;;20.67;9.80;;;;;;;5.25;100.00;100835.59;5046743;28;20072;-61
2023/12/09 01:52:08;;;;;;;28.20;11.40;;;;;;;5.22;100.00;100830.28;5047615;28;20064;-61
2023/12/09 01:54:33;;;;;;;26.52;9.80;;;;;;;5.18;100.00;100825.78;5047817;28;20086;-60
2023/12/09 01:56:59;;;;;;;28.57;10.77;;;;;;;5.17;100.00;100824.03;5048262;28;20062;-61
2023/12/09 01:59:24;;;;;;;22.98;10.13;;;;;;;5.22;100.00;100816.56;5049175;28;20029;-60
2023/12/09 02:01:51;;;;;;;26.77;10.15;;;;;;;5.19;100.00;100807.00;5059926;28;20464;-61
2023/12/09 02:04:17;;;;;;;27.30;10.43;;;;;;;5.17;100.00;100800.91;5061240;28;20048;-62
2023/12/09 02:06:42;;;;;;;20.73;9.20;;;;;;;5.21;100.00;100810.56;5063987;28;20049;-61
2023/12/09 02:09:09;;;;;;;18.73;10.47;;;;;;;5.18;100.00;100815.50;5047973;28;20032;-62
2023/12/09 02:11:43;;;;;;;23.63;9.33;;;;;;;5.23;100.00;100814.09;5043900;28;20032;-61
2023/12/09 02:14:18;;;;;;;24.63;9.63;;;;;;;5.17;100.00;100813.75;5056123;28;20035;-61
2023/12/09 02:16:52;;;;;;;27.75;10.23;;;;;;;5.13;100.00;100819.50;5040957;28;20491;-61
2023/12/09 02:19:17;;;;;;;28.80;9.93;;;;;;;5.07;100.00;100816.63;5041368;28;20622;-61
2023/12/09 02:22:01;;;;;;;24.65;10.35;;;;;;;5.09;100.00;100812.47;5048199;28;20033;-61
2023/12/09 02:24:27;;;;;;;27.45;9.88;;;;;;;5.12;100.00;100817.75;5066183;28;20039;-61
2023/12/09 02:27:00;;;;;;;26.42;10.00;;;;;;;5.12;100.00;100815.19;5056197;28;20020;-61
2023/12/09 02:29:27;;;;;;;25.52;11.27;;;;;;;5.17;100.00;100808.63;5047842;28;20469;-61
2023/12/09 02:32:02;;;;;;;26.75;10.70;;;;;;;5.09;100.00;100808.19;5047448;28;20381;-61
2023/12/09 02:34:30;;;;;;;24.38;9.23;;;;;;;5.08;100.00;100802.97;5036674;28;20028;-61
2023/12/09 02:36:56;;;;;;;25.30;9.90;;;;;;;5.12;100.00;100807.47;5061666;28;20236;-61
2023/12/09 02:39:22;;;;;;;19.38;8.73;;;;;;;5.11;100.00;100800.59;5058442;28;20482;-61
2023/12/09 02:41:49;;;;;;;26.02;9.30;;;;;;;5.09;100.00;100787.63;5047615;28;20032;-61
2023/12/09 02:44:15;;;;;;;24.33;9.27;;;;;;;5.13;100.00;100796.41;5047650;28;20032;-60
2023/12/09 02:46:40;;;;;;;26.80;8.80;;;;;;;5.08;100.00;100783.31;5047121;28;20045;-61
2023/12/09 02:49:05;;;;;;;30.20;9.85;;;;;;;5.09;100.00;100773.94;5046441;28;20077;-60
2023/12/09 02:51:31;;;;;;;25.38;9.88;;;;;;;5.12;100.00;100776.66;5047972;28;20029;-61
2023/12/09 02:53:56;;;;;;;27.85;9.65;;;;;;;5.13;100.00;100771.59;5047420;28;20388;-61
2023/12/09 02:56:21;;;;;;;24.30;9.25;;;;;;;5.14;100.00;100777.63;5046906;28;20021;-60
2023/12/09 02:58:47;;;;;;;19.73;7.93;;;;;;;5.12;100.00;100774.09;5047055;28;20025;-60
2023/12/09 03:01:12;;;;;;;29.58;9.13;;;;;;;5.07;100.00;100781.56;5057228;28;20048;-60
2023/12/09 03:03:37;;;;;;;26.25;9.40;;;;;;;5.09;100.00;100769.66;5037351;28;20021;-62
2023/12/09 03:06:03;;;;;;;23.67;8.13;;;;;;;5.07;100.00;100781.56;5033753;28;20078;-60
2023/12/09 03:08:28;;;;;;;18.48;7.18;;;;;;;5.10;100.00;100755.13;5046690;28;20032;-61
2023/12/09 03:10:53;;;;;;;22.83;7.40;;;;;;;5.08;100.00;100777.28;5046632;28;20068;-62
2023/12/09 03:13:19;;;;;;;19.35;7.72;;;;;;;5.14;100.00;100749.38;5046628;28;20029;-60
2023/12/09 03:15:44;;;;;;;20.98;8.15;;;;;;;5.10;100.00;100773.13;5048336;28;20497;-61
2023/12/09 03:18:09;;;;;;;26.45;7.45;;;;;;;5.12;100.00;100753.53;5046754;28;20027;-62
2023/12/09 03:20:34;;;;;;;22.25;7.43;;;;;;;5.04;100.00;100766.84;5047099;28;20029;-60
2023/12/09 03:23:00;;;;;;;16.60;7.32;;;;;;;5.04;100.00;100748.88;5046816;28;20021;-61
2023/12/09 03:25:25;;;;;;;22.73;8.32;;;;;;;5.02;100.00;100765.88;5047047;28;20051;-63
2023/12/09 03:27:50;;;;;;;16.65;6.88;;;;;;;5.04;100.00;100756.56;5046346;28;20105;-60
2023/12/09 03:30:15;;;;;;;25.45;7.45;;;;;;;5.04;100.00;100773.66;5059718;28;20028;-61
2023/12/09 03:32:41;;;;;;;25.33;7.35;;;;;;;5.10;100.00;100752.56;5052815;28;20030;-61
2023/12/09 03:35:07;;;;;;;22.02;8.07;;;;;;;5.04;100.00;100771.09;5040528;28;20029;-61
2023/12/09 03:37:32;;;;;;;21.02;6.60;;;;;;;5.03;100.00;100749.69;5039081;28;20074;-60
2023/12/09 03:39:58;;;;;;;23.92;7.47;;;;;;;5.01;100.00;100761.56;5055955;28;20119;-60
2023/12/09 03:42:23;;;;;;;19.00;7.20;;;;;;;5.03;100.00;100749.69;5048359;28;20488;-61
2023/12/09 03:44:48;;;;;;;23.42;7.47;;;;;;;4.97;100.00;100745.88;5046117;28;20086;-62
2023/12/09 03:47:14;;;;;;;22.80;8.30;;;;;;;4.95;100.00;100748.38;5046634;28;20037;-61
2023/12/09 03:49:39;;;;;;;22.65;7.57;;;;;;;4.92;100.00;100750.78;5046245;28;20350;-60
2023/12/09 03:52:05;;;;;;;18.10;6.82;;;;;;;4.96;100.00;100742.44;5047870;28;20390;-62
2023/12/09 03:54:30;;;;;;;19.65;6.47;;;;;;;4.97;100.00;100741.63;5045974;28;20033;-61
2023/12/09 03:56:55;;;;;;;18.55;7.65;;;;;;;5.01;100.00;100732.41;5039684;28;20022;-60
2023/12/09 03:59:20;;;;;;;20.42;6.82;;;;;;;4.99;100.00;100732.34;5040740;28;20048;-61
2023/12/09 04:01:50;;;;;;;24.42;7.55;;;;;;;5.03;100.00;100721.44;5046956;28;20029;-61
2023/12/09 04:04:16;;;;;;;26.58;8.00;;;;;;;5.02;100.00;100711.94;5058563;28;20036;-61
2023/12/09 04:06:41;;;;;;;25.98;7.38;;;;;;;4.99;100.00;100706.66;5039313;28;20128;-62
2023/12/09 04:09:06;;;;;;;18.73;6.70;;;;;;;5.01;100.00;100715.31;5043284;28;20108;-61
2023/12/09 04:11:32;;;;;;;24.00;7.47;;;;;;;4.95;100.00;100720.13;5057440;28;20031;-61
2023/12/09 04:13:57;;;;;;;20.15;6.75;;;;;;;4.96;100.00;100716.78;5045607;28;20390;-60
2023/12/09 04:16:22;;;;;;;22.58;6.22;;;;;;;4.96;100.00;100711.63;5051114;28;20033;-61
2023/12/09 04:18:47;;;;;;;27.23;7.18;;;;;;;4.96;100.00;100721.00;5030080;28;20030;-62
2023/12/09 04:21:13;;;;;;;22.42;6.85;;;;;;;4.92;100.00;100719.97;5035439;28;20420;-61
2023/12/09 04:23:38;;;;;;;19.42;6.78;;;;;;;4.95;100.00;100703.84;5036936;28;20034;-61
2023/12/09 04:26:04;;;;;;;20.83;6.90;;;;;;;4.97;100.00;100703.13;5053534;28;20100;-60
2023/12/09 04:28:30;;;;;;;28.58;7.32;;;;;;;4.96;100.00;100696.22;5045463;28;20041;-61
2023/12/09 04:30:55;;;;;;;21.80;6.75;;;;;;;4.94;100.00;100695.25;5067588;28;20586;-61
2023/12/09 04:33:21;;;;;;;16.30;6.47;;;;;;;4.92;100.00;100694.28;5057391;28;20503;-60
2023/12/09 04:35:46;;;;;;;17.92;5.75;;;;;;;4.93;100.00;100701.16;5062971;28;20025;-61
2023/12/09 04:38:11;;;;;;;19.77;6.65;;;;;;;4.96;100.00;100696.22;5049450;28;20039;-61
2023/12/09 04:40:38;;;;;;;20.92;5.97;;;;;;;4.92;100.00;100690.03;5057555;28;20390;-60
2023/12/09 04:43:03;;;;;;;23.88;6.95;;;;;;;4.91;100.00;100682.25;5041538;28;20021;-61
2023/12/09 04:45:29;;;;;;;19.08;6.45;;;;;;;4.91;100.00;100684.81;5044569;28;20025;-61
2023/12/09 04:47:54;;;;;;;17.65;6.38;;;;;;;4.93;100.00;100671.25;5049406;28;20037;-60
2023/12/09 04:50:19;;;;;;;17.63;6.15;;;;;;;4.89;100.00;100677.00;5049729;28;20035;-61
2023/12/09 04:52:44;;;;;;;20.48;7.20;;;;;;;4.83;100.00;100670.69;5049212;28;20040;-61
2023/12/09 04:55:10;;;;;;;23.63;6.40;;;;;;;4.85;100.00;100676.78;5048952;28;20555;-61
2023/12/09 04:57:35;;;;;;;21.17;6.20;;;;;;;4.78;100.00;100663.63;5056221;28;20021;-61
2023/12/09 05:00:03;;;;;;;18.33;6.20;;;;;;;4.75;100.00;100665.16;5048218;28;20028;-61
2023/12/09 05:02:28;;;;;;;15.88;6.10;;;;;;;4.77;100.00;100659.28;5043720;28;20052;-60
2023/12/09 05:04:54;;;;;;;20.05;6.47;;;;;;;4.79;100.00;100662.81;5054029;28;20079;-61
2023/12/09 05:07:19;;;;;;;23.17;6.20;;;;;;;4.78;100.00;100666.22;5048097;28;20095;-61
2023/12/09 05:09:44;;;;;;;23.35;6.38;;;;;;;4.75;100.00;100650.63;5059689;28;20025;-61
2023/12/09 05:12:10;;;;;;;21.67;7.05;;;;;;;4.70;100.00;100657.19;5049095;28;20017;-62
2023/12/09 05:14:35;;;;;;;16.73;6.13;;;;;;;4.68;100.00;100648.53;5048868;28;20039;-61
2023/12/09 05:17:01;;;;;;;18.75;5.95;;;;;;;4.66;100.00;100645.00;5054312;28;20594;-61
2023/12/09 05:19:26;;;;;;;22.02;5.82;;;;;;;4.68;100.00;100656.22;5039140;28;20438;-61
2023/12/09 05:21:51;;;;;;;21.50;7.05;;;;;;;4.70;100.00;100652.06;5052015;28;20035;-60
2023/12/09 05:24:18;;;;;;;21.02;7.35;;;;;;;4.71;100.00;100650.38;5049121;28;20063;-60
2023/12/09 05:26:43;;;;;;;18.38;6.53;;;;;;;4.68;100.00;100651.09;5048966;28;20017;-61
2023/12/09 05:29:08;;;;;;;14.63;5.78;;;;;;;4.67;100.00;100657.03;5048032;28;20028;-61
2023/12/09 05:31:34;;;;;;;18.67;6.07;;;;;;;4.67;100.00;100647.66;5048847;28;20036;-60
2023/12/09 05:33:59;;;;;;;17.90;5.88;;;;;;;4.62;100.00;100643.09;5048055;28;20066;-60
2023/12/09 05:36:24;;;;;;;15.27;5.43;;;;;;;4.66;100.00;100645.00;5048745;28;20033;-61
2023/12/09 05:38:49;;;;;;;24.60;6.20;;;;;;;4.71;100.00;100638.44;5050015;28;20094;-61
2023/12/09 05:41:15;;;;;;;21.63;5.57;;;;;;;4.73;100.00;100649.66;5047103;28;20108;-60
2023/12/09 05:43:42;;;;;;;19.92;5.82;;;;;;;4.72;100.00;100645.31;5048633;28;20029;-60
2023/12/09 05:46:08;;;;;;;19.83;5.95;;;;;;;4.71;100.00;100643.56;5055427;28;20098;-61
2023/12/09 05:48:34;;;;;;;19.63;5.22;;;;;;;4.71;100.00;100632.41;5054944;28;20439;-61
2023/12/09 05:50:59;;;;;;;14.02;4.75;;;;;;;4.78;100.00;100627.69;5067610;28;20104;-61
2023/12/09 05:53:25;;;;;;;24.02;5.47;;;;;;;4.73;100.00;100626.53;5062614;28;20040;-61
2023/12/09 05:55:50;;;;;;;20.08;5.50;;;;;;;4.73;100.00;100626.53;5048708;28;20041;-61
2023/12/09 05:58:15;;;;;;;12.20;5.15;;;;;;;4.73;100.00;100629.09;5034405;28;20031;-61
2023/12/09 06:00:41;;;;;;;16.73;5.72;;;;;;;4.71;100.00;100627.28;5058343;28;20032;-60
2023/12/09 06:03:06;;;;;;;18.40;5.20;;;;;;;4.68;100.00;100634.00;5035581;28;20032;-61
2023/12/09 06:05:31;;;;;;;15.15;5.47;;;;;;;4.75;100.00;100632.66;5048887;28;20479;-61
2023/12/09 06:07:57;;;;;;;19.42;6.70;;;;;;;4.68;100.00;100636.59;5048904;28;20052;-60
2023/12/09 06:10:22;;;;;;;14.87;5.00;;;;;;;4.69;100.00;100624.63;5059067;28;20039;-61
2023/12/09 06:12:47;;;;;;;16.92;5.07;;;;;;;4.67;100.00;100624.56;5066706;28;20400;-61
2023/12/09 06:15:12;;;;;;;17.57;4.27;;;;;;;4.71;100.00;100622.16;5045854;28;20061;-61
2023/12/09 06:17:38;;;;;;;20.63;5.22;;;;;;;4.74;100.00;100607.78;5047535;28;20024;-61
2023/12/09 06:20:06;;;;;;;17.48;4.97;;;;;;;4.74;100.00;100602.66;5056340;28;20033;-60
2023/12/09 06:22:32;;;;;;;17.35;5.25;;;;;;;4.77;100.00;100597.66;5046023;28;20121;-60
2023/12/09 06:24:58;;;;;;;15.55;5.22;;;;;;;4.75;100.00;100588.13;5057255;28;20077;-61
2023/12/09 06:27:24;;;;;;;13.30;4.80;;;;;;;4.77;100.00;100587.41;5050120;28;20062;-61
2023/12/09 06:29:51;;;;;;;19.73;5.13;;;;;;;4.73;100.00;100585.47;5057420;28;20560;-60
2023/12/09 06:32:16;;;;;;;15.15;4.68;;;;;;;4.75;100.00;100583.88;5053451;28;20031;-61
2023/12/09 06:34:41;;;;;;;15.70;5.45;;;;;;;4.73;100.00;100582.91;5065616;28;20025;-61
2023/12/09 06:37:06;;;;;;;18.65;4.65;;;;;;;4.76;100.00;100577.94;5065715;28;20031;-61
2023/12/09 06:39:32;;;;;;;15.60;5.40;;;;;;;4.75;100.00;100578.72;5060538;28;20098;-60
2023/12/09 06:41:57;;;;;;;23.10;5.30;;;;;;;4.74;100.00;100576.97;5046698;28;20017;-61
2023/12/09 06:44:22;;;;;;;15.00;4.78;;;;;;;4.74;100.00;100573.53;5051081;28;20097;-62
2023/12/09 06:46:47;;;;;;;15.23;4.90;;;;;;;4.75;100.00;100558.19;5058555;28;20492;-60
2023/12/09 06:49:13;;;;;;;19.67;5.10;;;;;;;4.75;100.00;100553.06;5054947;28;20017;-61
2023/12/09 06:51:40;;;;;;;17.00;4.70;;;;;;;4.73;100.00;100543.53;5048942;28;20024;-61
2023/12/09 06:54:06;;;;;;;13.83;4.60;;;;;;;4.72;100.00;100532.38;5046519;28;20070;-61
2023/12/09 06:56:31;;;;;;;12.20;4.30;;;;;;;4.68;100.00;100545.84;5044545;28;20134;-61
2023/12/09 06:58:56;;;;;;;15.93;5.30;;;;;;;4.66;100.00;100537.16;5044601;28;20424;-62
2023/12/09 07:01:23;;;;;;;14.32;4.90;;;;;;;4.65;100.00;100520.03;5045660;28;20031;-60
2023/12/09 07:03:51;;;;;;;12.82;4.57;;;;;;;4.68;100.00;100507.34;5043555;28;20051;-61
2023/12/09 07:06:21;;;;;;;21.08;5.90;;;;;;;4.65;100.00;100502.06;5045573;28;20650;-61
2023/12/09 07:08:46;;;;;;;12.43;4.13;;;;;;;4.63;100.00;100496.84;5045166;28;20116;-61
2023/12/09 07:11:11;;;;;;;19.40;4.95;;;;;;;4.64;100.00;100488.31;5044569;28;20118;-61
2023/12/09 07:13:38;;;;;;;13.68;4.30;;;;;;;4.62;100.00;100479.69;5045681;28;20025;-61
2023/12/09 07:16:05;;;;;;;22.27;5.30;;;;;;;4.59;100.00;100474.38;5044588;28;20021;-61
2023/12/09 07:18:30;;;;;;;11.53;4.97;;;;;;;4.60;100.00;100470.13;5043835;28;20025;-60
2023/12/09 07:20:55;;;;;;;12.35;4.78;;;;;;;4.64;100.00;100454.97;5044662;28;20396;-61
2023/12/09 07:23:20;;;;;;;18.23;5.00;;;;;;;4.72;100.00;100449.31;5041407;28;20062;-62
2023/12/09 07:25:46;;;;;;;14.73;4.63;;;;;;;4.74;100.00;100461.44;5044052;28;20529;-61
2023/12/09 07:28:11;;;;;;;10.50;4.72;;;;;;;4.74;100.00;100468.25;5043269;28;20052;-60
2023/12/09 07:30:36;;;;;;;18.70;6.13;;;;;;;4.75;100.00;100470.91;5042264;28;20089;-62
2023/12/09 07:33:02;;;;;;;15.77;4.38;;;;;;;4.74;100.00;100473.38;5040926;28;20029;-61
2023/12/09 07:35:27;;;;;;;14.40;4.63;;;;;;;4.82;100.00;100471.22;5042593;28;20032;-61
2023/12/09 07:37:52;;;;;;;17.52;5.03;;;;;;;4.78;100.00;100468.50;5053914;28;20452;-61
2023/12/09 07:40:17;;;;;;;23.60;4.97;;;;;;;4.78;100.00;100453.09;5048852;28;20029;-61
2023/12/09 07:42:43;;;;;;;14.82;4.53;;;;;;;4.79;100.00;100449.72;5041198;28;20025;-62
2023/12/09 07:45:08;;;;;;;14.82;4.65;;;;;;;4.76;100.00;100452.13;5039158;28;20093;-62
2023/12/09 07:47:34;;;;;;;13.77;5.05;;;;;;;4.78;100.00;100445.41;5032535;28;20057;-62
2023/12/09 07:49:59;;;;;;;19.40;4.65;;;;;;;4.84;100.00;100460.19;5047435;28;20071;-61
2023/12/09 07:52:24;;;;;;;16.58;4.82;;;;;;;4.91;100.00;100448.56;5043615;28;20398;-60
2023/12/09 07:54:49;;;;;;;16.00;5.65;;;;;;;4.93;100.00;100437.53;5052611;28;20051;-61
2023/12/09 07:57:15;;;;;;;16.85;4.95;;;;;;;4.93;100.00;100428.94;5050143;28;20086;-61
2023/12/09 07:59:40;;;;;;;13.02;4.50;;;;;;;4.95;100.00;100429.91;5056618;28;20029;-60
2023/12/09 08:02:05;;;;;;;11.15;4.35;;;;;;;4.99;100.00;100424.13;5042066;28;20032;-61
2023/12/09 08:04:31;;;;;;;15.48;4.43;;;;;;;5.02;100.00;100407.97;5048095;28;20555;-61
2023/12/09 08:06:56;;;;;;;15.15;4.50;;;;;;;5.05;100.00;100406.44;5049384;28;20075;-60
2023/12/09 08:09:21;;;;;;;16.88;4.40;;;;;;;5.07;100.00;100405.63;5046395;28;20032;-61
2023/12/09 08:11:46;;;;;;;13.50;4.43;;;;;;;5.11;100.00;100407.56;5048483;28;20490;-61
2023/12/09 08:14:12;;;;;;;17.85;4.28;;;;;;;5.08;100.00;100407.38;5050153;28;20021;-61
2023/12/09 08:16:37;;;;;;;15.18;3.90;;;;;;;5.10;100.00;100398.06;5048562;28;20025;-60
2023/12/09 08:19:02;;;;;;;20.73;4.32;;;;;;;5.10;100.00;100395.50;5049323;28;20032;-61
2023/12/09 08:21:28;;;;;;;13.68;4.20;;;;;;;5.14;100.00;100403.44;5048945;28;20982;-61
2023/12/09 08:23:54;;;;;;;17.67;3.78;;;;;;;5.16;100.00;100400.94;5034877;28;20025;-60
2023/12/09 08:26:19;;;;;;;13.43;4.15;;;;;;;5.25;100.00;100405.63;5044190;28;20024;-60
2023/12/09 08:28:45;;;;;;;11.20;4.07;;;;;;;5.29;100.00;100403.25;5067506;28;20036;-61
2023/12/09 08:31:10;;;;;;;11.93;3.50;;;;;;;5.34;100.00;100397.47;5040515;28;20029;-61
2023/12/09 08:33:35;;;;;;;19.15;5.10;;;;;;;5.35;100.00;100401.78;5042812;28;20037;-61
2023/12/09 08:36:01;;;;;;;11.52;3.47;;;;;;;5.43;100.00;100395.31;5049356;28;20053;-60
2023/12/09 08:38:26;;;;;;;10.98;3.72;;;;;;;5.42;100.00;100396.13;5062697;28;20028;-61
2023/12/09 08:40:53;;;;;;;10.70;3.30;;;;;;;5.42;100.00;100398.69;5061992;28;20060;-61
2023/12/09 08:43:18;;;;;;;9.82;3.38;;;;;;;5.48;100.00;100396.41;5048867;28;20104;-62
2023/12/09 08:45:43;;;;;;;12.95;3.25;;;;;;;5.52;100.00;100390.59;5051886;28;20112;-62
2023/12/09 08:48:08;;;;;;;10.95;3.75;;;;;;;5.62;100.00;100396.16;5050598;28;20057;-60
2023/12/09 08:50:34;;;;;;;13.35;4.03;;;;;;;5.64;100.00;100381.69;5052582;28;20025;-60
2023/12/09 08:52:59;;;;;;;19.60;3.75;;;;;;;5.65;100.00;100380.84;5049376;28;20029;-60
2023/12/09 08:55:24;;;;;;;12.85;3.22;;;;;;;5.69;100.00;100369.91;5042973;28;20029;-61
2023/12/09 08:57:51;;;;;;;12.23;2.78;;;;;;;5.69;100.00;100367.34;5044414;28;20503;-60
2023/12/09 09:00:20;;;;;;;16.13;3.47;;;;;;;5.73;100.00;100369.25;5051314;28;20065;-60
2023/12/09 09:02:47;;;;;;;9.85;3.30;;;;;;;5.76;100.00;100371.03;5047906;28;20036;-62
2023/12/09 09:05:12;;;;;;;11.52;3.40;;;;;;;5.82;100.00;100362.72;5051563;28;20086;-61
2023/12/09 09:07:40;;;;;;;10.10;2.75;;;;;;;5.89;100.00;100364.75;5050595;28;20024;-61
2023/12/09 09:10:09;;;;;;;11.23;2.67;;;;;;;5.91;100.00;100363.13;5044623;28;20543;-60
2023/12/09 09:12:34;;;;;;;9.43;2.90;;;;;;;5.88;100.00;100342.44;5045132;28;20381;-61
2023/12/09 09:14:59;;;;;;;11.63;2.83;;;;;;;5.92;100.00;100334.03;5052737;28;20032;-60
2023/12/09 09:17:24;;;;;;;8.55;2.65;;;;;;;5.99;100.00;100305.19;5049428;28;20439;-60
2023/12/09 09:19:50;;;;;;;14.10;2.67;;;;;;;6.04;100.00;100313.09;5043978;28;20016;-60
2023/12/09 09:22:16;;;;;;;7.80;2.90;;;;;;;6.01;100.00;100298.41;5045966;28;20025;-61
2023/12/09 09:24:41;;;;;;;12.35;3.05;;;;;;;6.04;100.00;100282.22;5047389;28;20558;-61
2023/12/09 09:27:06;;;;;;;13.15;2.70;;;;;;;6.03;100.00;100261.59;5045943;28;20025;-62
2023/12/09 09:29:31;;;;;;;12.90;2.72;;;;;;;6.11;100.00;100267.97;5046922;28;20473;-61
2023/12/09 09:31:57;;;;;;;8.38;2.95;;;;;;;6.11;100.00;100266.28;5046363;28;20274;-62
2023/12/09 09:34:22;;;;;;;9.68;2.13;;;;;;;6.12;100.00;100254.25;5045823;28;20413;-61
2023/12/09 09:36:48;;;;;;;10.43;2.55;;;;;;;6.10;100.00;100248.16;5046322;28;20021;-61
2023/12/09 09:39:14;;;;;;;9.88;2.83;;;;;;;6.15;100.00;100263.81;5046178;28;20024;-61
2023/12/09 09:41:58;;;;;;;9.25;3.10;;;;;;;6.19;100.00;100266.56;5046337;28;20036;-60
2023/12/09 09:44:27;;;;;;;10.48;2.58;;;;;;;6.24;100.00;100259.91;5045578;28;20245;-62
2023/12/09 09:46:56;;;;;;;10.50;2.25;;;;;;;6.29;100.00;100254.06;5046526;28;20056;-61
2023/12/09 09:49:23;;;;;;;10.68;2.78;;;;;;;6.29;100.00;100248.94;5044305;28;20083;-62
2023/12/09 09:51:52;;;;;;;8.70;2.22;;;;;;;6.30;100.00;100237.81;5045456;28;20056;-62
2023/12/09 09:54:23;;;;;;;9.13;2.35;;;;;;;6.34;100.00;100239.69;5046899;28;20032;-60
2023/12/09 09:56:50;;;;;;;10.85;2.67;;;;;;;6.30;100.00;100227.50;5052353;28;20086;-61
2023/12/09 09:59:16;;;;;;;8.43;2.70;;;;;;;6.36;100.00;100217.47;5051681;28;20028;-61
2023/12/09 10:01:41;;;;;;;10.90;2.10;;;;;;;6.33;100.00;100217.38;5046464;28;20288;-61
2023/12/09 10:04:07;;;;;;;8.88;2.13;;;;;;;6.41;100.00;100215.97;5045869;28;20124;-62
2023/12/09 10:06:34;;;;;;;9.05;3.80;;;;;;;6.44;100.00;100210.06;5045075;28;20112;-61
2023/12/09 10:08:59;;;;;;;6.95;1.92;;;;;;;6.47;100.00;100205.91;5057528;28;20036;-61
2023/12/09 10:11:24;;;;;;;9.57;2.47;;;;;;;6.52;100.00;100188.06;5061943;28;20029;-61
2023/12/09 10:13:49;;;;;;;8.75;2.08;;;;;;;6.49;100.00;100180.22;5051936;28;20385;-61
2023/12/09 10:16:15;;;;;;;8.70;2.10;;;;;;;6.49;100.00;100155.34;5039207;28;20060;-61
2023/12/09 10:18:47;;;;;;;7.55;1.80;;;;;;;6.51;100.00;100150.28;5051310;28;20025;-61
2023/12/09 10:21:14;;;;;;;8.27;1.92;;;;;;;6.56;100.00;100143.59;5034767;28;20417;-60
2023/12/09 10:23:40;;;;;;;6.40;2.75;;;;;;;6.57;100.00;100127.31;5048935;28;20024;-60
2023/12/09 10:26:06;;;;;;;8.48;2.22;;;;;;;6.60;100.00;100130.00;5042591;28;20628;-62
2023/12/09 10:28:33;;;;;;;7.75;2.20;;;;;;;6.61;100.00;100115.44;5052943;28;20044;-61
2023/12/09 10:30:58;;;;;;;10.07;3.70;;;;;;;6.66;100.00;100110.44;5035100;28;20389;-61
2023/12/09 10:33:23;;;;;;;9.27;2.30;;;;;;;6.62;100.00;100103.44;5058613;28;20089;-61
2023/12/09 10:35:49;;;;;;;8.38;1.90;;;;;;;6.64;100.00;100084.66;5036766;28;20025;-61
2023/12/09 10:38:18;;;;;;;10.05;2.20;;;;;;;6.70;100.00;100090.03;5037876;28;20048;-62
2023/12/09 10:40:44;;;;;;;6.78;2.20;;;;;;;6.71;100.00;100089.19;5046659;28;20472;-61
2023/12/09 10:43:09;;;;;;;8.68;2.15;;;;;;;6.67;100.00;100087.34;5048046;28;20103;-61
2023/12/09 10:45:34;;;;;;;8.50;2.33;;;;;;;6.81;100.00;100077.53;5046042;28;20040;-62
2023/12/09 10:47:59;;;;;;;6.93;1.90;;;;;;;6.75;100.00;100068.69;5055908;28;20040;-61
2023/12/09 10:50:25;;;;;;;8.35;1.98;;;;;;;6.76;100.00;100044.72;5052154;28;20499;-62
2023/12/09 10:52:50;;;;;;;8.35;2.15;;;;;;;6.75;100.00;100030.94;5050593;28;20026;-61
2023/12/09 10:55:15;;;;;;;6.75;1.88;;;;;;;6.80;100.00;100019.09;5054537;28;20032;-61
2023/12/09 10:57:43;;;;;;;5.60;1.52;;;;;;;6.84;100.00;100007.22;5052665;28;20433;-62
2023/12/09 11:00:10;;;;;;;7.22;1.83;;;;;;;6.80;100.00;99998.50;5047318;28;20029;-60
2023/12/09 11:02:44;;;;;;;7.03;2.30;;;;;;;6.79;100.00;99990.72;5044147;28;20041;-61
2023/12/09 11:05:09;;;;;;;7.05;2.20;;;;;;;6.77;100.00;99982.97;5045244;28;20025;-62
2023/12/09 11:07:36;;;;;;;5.75;2.00;;;;;;;6.77;100.00;99982.97;5042451;28;20723;-61
2023/12/09 11:10:03;;;;;;;5.38;1.85;;;;;;;6.80;100.00;99982.19;5052998;28;20556;-62